sensor_id;sensor_type;location;lat;lon;timestamp;temperature;humidity
12408;DHT22;6268;48.188;17.134;2022-09-28T00:01:54;10.80;99.90
12408;DHT22;6268;48.188;17.134;2022-09-28T00:04:23;10.80;99.90
12408;DHT22;6268;48.188;17.134;2022-09-28T00:06:53;10.80;99.90
12408;DHT22;6268;48.188;17.134;2022-09-28T00:09:21;10.80;99.90
12408;DHT22;6268;48.188;17.134;2022-09-28T00:11:50;10.80;99.90
12408;DHT22;6268;48.188;17.134;2022-09-28T00:14:19;10.80;99.90
12408;DHT22;6268;48.188;17.134;2022-09-28T00:16:48;10.80;99.90
12408;DHT22;6268;48.188;17.134;2022-09-28T00:19:17;10.80;99.90
12408;DHT22;6268;48.188;17.134;2022-09-28T00:21:46;10.90;99.90
12408;DHT22;6268;48.188;17.134;2022-09-28T00:24:16;10.90;99.90
12408;DHT22;6268;48.188;17.134;2022-09-28T00:26:52;10.80;99.90
12408;DHT22;6268;48.188;17.134;2022-09-28T00:29:24;10.80;99.90
12408;DHT22;6268;48.188;17.134;2022-09-28T00:31:55;10.70;99.90
12408;DHT22;6268;48.188;17.134;2022-09-28T00:34:30;10.70;99.90
12408;DHT22;6268;48.188;17.134;2022-09-28T00:37:02;10.80;99.90
12408;DHT22;6268;48.188;17.134;2022-09-28T00:39:32;10.80;99.90
12408;DHT22;6268;48.188;17.134;2022-09-28T00:42:10;10.80;99.90
12408;DHT22;6268;48.188;17.134;2022-09-28T00:44:50;10.80;99.90
12408;DHT22;6268;48.188;17.134;2022-09-28T00:47:39;10.80;99.90
12408;DHT22;6268;48.188;17.134;2022-09-28T00:50:22;10.90;99.90
12408;DHT22;6268;48.188;17.134;2022-09-28T00:52:58;10.80;99.90
12408;DHT22;6268;48.188;17.134;2022-09-28T00:55:37;10.80;99.90
12408;DHT22;6268;48.188;17.134;2022-09-28T00:58:12;10.80;99.90
12408;DHT22;6268;48.188;17.134;2022-09-28T01:00:47;10.90;99.90
12408;DHT22;6268;48.188;17.134;2022-09-28T01:03:16;10.90;99.90
12408;DHT22;6268;48.188;17.134;2022-09-28T01:05:46;10.90;99.90
12408;DHT22;6268;48.188;17.134;2022-09-28T01:08:18;10.90;99.90
12408;DHT22;6268;48.188;17.134;2022-09-28T01:10:50;10.90;99.90
12408;DHT22;6268;48.188;17.134;2022-09-28T01:13:20;10.90;99.90
12408;DHT22;6268;48.188;17.134;2022-09-28T01:15:57;10.90;99.90
12408;DHT22;6268;48.188;17.134;2022-09-28T01:18:39;10.90;99.90
12408;DHT22;6268;48.188;17.134;2022-09-28T01:21:18;10.90;99.90
12408;DHT22;6268;48.188;17.134;2022-09-28T01:23:59;10.90;99.90
12408;DHT22;6268;48.188;17.134;2022-09-28T01:27:05;11.00;99.90
12408;DHT22;6268;48.188;17.134;2022-09-28T01:29:45;11.00;99.90
12408;DHT22;6268;48.188;17.134;2022-09-28T01:32:24;11.00;99.90
12408;DHT22;6268;48.188;17.134;2022-09-28T01:35:04;11.00;99.90
12408;DHT22;6268;48.188;17.134;2022-09-28T01:37:42;11.00;99.90
12408;DHT22;6268;48.188;17.134;2022-09-28T01:40:15;11.00;99.90
12408;DHT22;6268;48.188;17.134;2022-09-28T01:42:48;11.00;99.90
12408;DHT22;6268;48.188;17.134;2022-09-28T01:45:24;10.90;99.90
12408;DHT22;6268;48.188;17.134;2022-09-28T01:47:59;10.90;99.90
12408;DHT22;6268;48.188;17.134;2022-09-28T01:50:35;10.90;99.90
12408;DHT22;6268;48.188;17.134;2022-09-28T01:53:11;10.80;99.90
12408;DHT22;6268;48.188;17.134;2022-09-28T01:55:46;10.80;99.90
12408;DHT22;6268;48.188;17.134;2022-09-28T01:58:23;10.80;99.90
12408;DHT22;6268;48.188;17.134;2022-09-28T02:00:59;10.80;99.90
12408;DHT22;6268;48.188;17.134;2022-09-28T02:03:37;10.90;99.90
12408;DHT22;6268;48.188;17.134;2022-09-28T02:06:14;10.90;99.90
12408;DHT22;6268;48.188;17.134;2022-09-28T02:08:50;10.80;99.90
12408;DHT22;6268;48.188;17.134;2022-09-28T02:11:22;10.90;99.90
12408;DHT22;6268;48.188;17.134;2022-09-28T02:13:55;10.90;99.90
12408;DHT22;6268;48.188;17.134;2022-09-28T02:16:32;10.90;99.90
12408;DHT22;6268;48.188;17.134;2022-09-28T02:19:04;10.90;99.90
12408;DHT22;6268;48.188;17.134;2022-09-28T02:21:40;10.90;99.90
12408;DHT22;6268;48.188;17.134;2022-09-28T02:24:16;10.90;99.90
12408;DHT22;6268;48.188;17.134;2022-09-28T02:26:49;10.90;99.90
12408;DHT22;6268;48.188;17.134;2022-09-28T02:29:22;10.90;99.90
12408;DHT22;6268;48.188;17.134;2022-09-28T02:31:51;11.00;99.90
12408;DHT22;6268;48.188;17.134;2022-09-28T02:34:20;10.90;99.90
12408;DHT22;6268;48.188;17.134;2022-09-28T02:36:49;10.90;99.90
12408;DHT22;6268;48.188;17.134;2022-09-28T02:39:17;10.90;99.90
12408;DHT22;6268;48.188;17.134;2022-09-28T02:41:53;10.90;99.90
12408;DHT22;6268;48.188;17.134;2022-09-28T02:44:52;10.90;99.90
12408;DHT22;6268;48.188;17.134;2022-09-28T02:47:38;10.90;99.90
12408;DHT22;6268;48.188;17.134;2022-09-28T02:50:26;10.90;99.90
12408;DHT22;6268;48.188;17.134;2022-09-28T02:56:29;10.80;99.90
12408;DHT22;6268;48.188;17.134;2022-09-28T02:59:15;10.80;99.90
12408;DHT22;6268;48.188;17.134;2022-09-28T03:02:01;10.80;99.90
12408;DHT22;6268;48.188;17.134;2022-09-28T03:04:43;10.80;99.90
12408;DHT22;6268;48.188;17.134;2022-09-28T03:07:21;10.80;99.90
12408;DHT22;6268;48.188;17.134;2022-09-28T03:09:58;10.80;99.90
12408;DHT22;6268;48.188;17.134;2022-09-28T03:12:32;10.70;99.90
12408;DHT22;6268;48.188;17.134;2022-09-28T03:15:08;10.70;99.90
12408;DHT22;6268;48.188;17.134;2022-09-28T03:17:41;10.70;99.90
12408;DHT22;6268;48.188;17.134;2022-09-28T03:20:10;10.60;99.90
12408;DHT22;6268;48.188;17.134;2022-09-28T03:22:38;10.60;99.90
12408;DHT22;6268;48.188;17.134;2022-09-28T03:25:08;10.50;99.90
12408;DHT22;6268;48.188;17.134;2022-09-28T03:27:37;10.50;99.90
12408;DHT22;6268;48.188;17.134;2022-09-28T03:30:07;10.50;99.90
12408;DHT22;6268;48.188;17.134;2022-09-28T03:32:37;10.50;99.90
12408;DHT22;6268;48.188;17.134;2022-09-28T03:35:08;10.40;99.90
12408;DHT22;6268;48.188;17.134;2022-09-28T03:37:37;10.40;99.90
12408;DHT22;6268;48.188;17.134;2022-09-28T03:40:06;10.40;99.90
12408;DHT22;6268;48.188;17.134;2022-09-28T03:42:35;10.40;99.90
12408;DHT22;6268;48.188;17.134;2022-09-28T03:45:05;10.40;99.90
12408;DHT22;6268;48.188;17.134;2022-09-28T03:47:34;10.40;99.90
12408;DHT22;6268;48.188;17.134;2022-09-28T03:50:04;10.40;99.90
12408;DHT22;6268;48.188;17.134;2022-09-28T03:52:34;10.40;99.90
12408;DHT22;6268;48.188;17.134;2022-09-28T03:55:03;10.40;99.90
12408;DHT22;6268;48.188;17.134;2022-09-28T03:57:32;10.40;99.90
12408;DHT22;6268;48.188;17.134;2022-09-28T04:00:01;10.40;99.90
12408;DHT22;6268;48.188;17.134;2022-09-28T04:02:30;10.30;99.90
12408;DHT22;6268;48.188;17.134;2022-09-28T04:04:59;10.40;99.90
12408;DHT22;6268;48.188;17.134;2022-09-28T04:07:27;10.40;99.90
12408;DHT22;6268;48.188;17.134;2022-09-28T04:09:58;10.40;99.90
12408;DHT22;6268;48.188;17.134;2022-09-28T04:12:27;10.40;99.90
12408;DHT22;6268;48.188;17.134;2022-09-28T04:14:55;10.30;99.90
12408;DHT22;6268;48.188;17.134;2022-09-28T04:17:24;10.20;99.90
12408;DHT22;6268;48.188;17.134;2022-09-28T04:19:53;10.20;99.90
12408;DHT22;6268;48.188;17.134;2022-09-28T04:22:21;10.20;99.90
12408;DHT22;6268;48.188;17.134;2022-09-28T04:24:50;10.20;99.90
12408;DHT22;6268;48.188;17.134;2022-09-28T04:27:20;10.30;99.90
12408;DHT22;6268;48.188;17.134;2022-09-28T04:30:08;10.40;99.90
12408;DHT22;6268;48.188;17.134;2022-09-28T04:32:37;10.40;99.90
12408;DHT22;6268;48.188;17.134;2022-09-28T04:35:08;10.30;99.90
12408;DHT22;6268;48.188;17.134;2022-09-28T04:37:37;10.20;99.90
12408;DHT22;6268;48.188;17.134;2022-09-28T04:40:07;10.30;99.90
12408;DHT22;6268;48.188;17.134;2022-09-28T04:42:38;10.50;99.90
12408;DHT22;6268;48.188;17.134;2022-09-28T04:45:07;10.60;99.90
12408;DHT22;6268;48.188;17.134;2022-09-28T04:47:36;10.60;99.90
12408;DHT22;6268;48.188;17.134;2022-09-28T04:50:06;10.70;99.90
12408;DHT22;6268;48.188;17.134;2022-09-28T04:52:35;10.80;99.90
12408;DHT22;6268;48.188;17.134;2022-09-28T04:55:04;10.80;99.90
12408;DHT22;6268;48.188;17.134;2022-09-28T04:57:34;10.90;99.90
12408;DHT22;6268;48.188;17.134;2022-09-28T05:00:05;11.00;99.90
12408;DHT22;6268;48.188;17.134;2022-09-28T05:02:34;11.20;99.90
12408;DHT22;6268;48.188;17.134;2022-09-28T05:05:04;11.30;99.90
12408;DHT22;6268;48.188;17.134;2022-09-28T05:07:33;11.20;99.90
12408;DHT22;6268;48.188;17.134;2022-09-28T05:10:02;11.10;99.90
12408;DHT22;6268;48.188;17.134;2022-09-28T05:12:31;11.00;99.90
12408;DHT22;6268;48.188;17.134;2022-09-28T05:15:00;11.00;99.90
12408;DHT22;6268;48.188;17.134;2022-09-28T05:17:30;11.10;99.90
12408;DHT22;6268;48.188;17.134;2022-09-28T05:19:58;11.20;99.90
12408;DHT22;6268;48.188;17.134;2022-09-28T05:22:28;11.20;99.90
12408;DHT22;6268;48.188;17.134;2022-09-28T05:24:57;11.10;99.90
12408;DHT22;6268;48.188;17.134;2022-09-28T05:27:26;11.20;99.90
12408;DHT22;6268;48.188;17.134;2022-09-28T05:29:54;11.60;99.90
12408;DHT22;6268;48.188;17.134;2022-09-28T05:32:23;12.10;99.90
12408;DHT22;6268;48.188;17.134;2022-09-28T05:34:53;12.70;99.90
12408;DHT22;6268;48.188;17.134;2022-09-28T05:37:22;13.30;99.90
12408;DHT22;6268;48.188;17.134;2022-09-28T05:39:51;13.90;99.90
12408;DHT22;6268;48.188;17.134;2022-09-28T05:42:19;14.50;99.90
12408;DHT22;6268;48.188;17.134;2022-09-28T05:44:48;14.80;99.90
12408;DHT22;6268;48.188;17.134;2022-09-28T05:47:17;15.10;99.90
12408;DHT22;6268;48.188;17.134;2022-09-28T05:49:45;15.20;99.90
12408;DHT22;6268;48.188;17.134;2022-09-28T05:52:15;14.90;99.90
12408;DHT22;6268;48.188;17.134;2022-09-28T05:54:44;14.80;99.90
12408;DHT22;6268;48.188;17.134;2022-09-28T05:57:12;15.40;99.90
12408;DHT22;6268;48.188;17.134;2022-09-28T05:59:41;16.00;99.90
12408;DHT22;6268;48.188;17.134;2022-09-28T06:02:10;16.20;99.90
12408;DHT22;6268;48.188;17.134;2022-09-28T06:04:38;16.70;99.90
12408;DHT22;6268;48.188;17.134;2022-09-28T06:07:07;17.10;99.90
12408;DHT22;6268;48.188;17.134;2022-09-28T06:09:37;17.40;99.90
12408;DHT22;6268;48.188;17.134;2022-09-28T06:12:06;17.80;99.90
12408;DHT22;6268;48.188;17.134;2022-09-28T06:14:35;18.10;99.90
12408;DHT22;6268;48.188;17.134;2022-09-28T06:17:04;18.70;99.90
12408;DHT22;6268;48.188;17.134;2022-09-28T06:19:33;19.20;99.90
12408;DHT22;6268;48.188;17.134;2022-09-28T06:22:02;19.40;99.60
12408;DHT22;6268;48.188;17.134;2022-09-28T06:24:30;19.70;97.50
12408;DHT22;6268;48.188;17.134;2022-09-28T06:27:00;19.80;96.30
12408;DHT22;6268;48.188;17.134;2022-09-28T06:29:29;20.20;95.40
12408;DHT22;6268;48.188;17.134;2022-09-28T06:31:58;20.50;93.50
12408;DHT22;6268;48.188;17.134;2022-09-28T06:34:27;20.70;92.00
12408;DHT22;6268;48.188;17.134;2022-09-28T06:36:57;20.50;91.50
12408;DHT22;6268;48.188;17.134;2022-09-28T06:39:26;20.20;92.80
12408;DHT22;6268;48.188;17.134;2022-09-28T06:41:55;20.10;94.10
12408;DHT22;6268;48.188;17.134;2022-09-28T06:44:25;19.90;95.00
12408;DHT22;6268;48.188;17.134;2022-09-28T06:46:53;20.10;95.50
12408;DHT22;6268;48.188;17.134;2022-09-28T06:49:23;20.30;95.20
12408;DHT22;6268;48.188;17.134;2022-09-28T06:51:53;20.50;93.90
12408;DHT22;6268;48.188;17.134;2022-09-28T06:54:22;20.60;94.00
12408;DHT22;6268;48.188;17.134;2022-09-28T06:56:51;20.80;93.90
12408;DHT22;6268;48.188;17.134;2022-09-28T06:59:20;21.20;92.60
12408;DHT22;6268;48.188;17.134;2022-09-28T07:01:50;21.50;91.00
12408;DHT22;6268;48.188;17.134;2022-09-28T07:04:19;21.50;91.70
12408;DHT22;6268;48.188;17.134;2022-09-28T07:06:48;22.20;90.40
12408;DHT22;6268;48.188;17.134;2022-09-28T07:09:16;22.50;87.40
12408;DHT22;6268;48.188;17.134;2022-09-28T07:11:58;22.60;84.80
12408;DHT22;6268;48.188;17.134;2022-09-28T07:14:27;22.20;87.50
12408;DHT22;6268;48.188;17.134;2022-09-28T07:17:15;22.20;88.00
12408;DHT22;6268;48.188;17.134;2022-09-28T07:19:44;22.00;90.00
12408;DHT22;6268;48.188;17.134;2022-09-28T07:22:13;22.10;89.40
12408;DHT22;6268;48.188;17.134;2022-09-28T07:24:47;21.50;90.30
12408;DHT22;6268;48.188;17.134;2022-09-28T07:27:16;20.00;95.70
12408;DHT22;6268;48.188;17.134;2022-09-28T07:29:46;19.50;99.50
12408;DHT22;6268;48.188;17.134;2022-09-28T07:32:16;18.70;99.90
12408;DHT22;6268;48.188;17.134;2022-09-28T07:34:44;18.10;99.90
12408;DHT22;6268;48.188;17.134;2022-09-28T07:37:15;17.50;99.90
12408;DHT22;6268;48.188;17.134;2022-09-28T07:39:45;17.30;99.90
12408;DHT22;6268;48.188;17.134;2022-09-28T07:42:31;16.70;99.90
12408;DHT22;6268;48.188;17.134;2022-09-28T07:45:00;16.70;99.90
12408;DHT22;6268;48.188;17.134;2022-09-28T07:47:30;16.30;99.90
12408;DHT22;6268;48.188;17.134;2022-09-28T07:50:01;16.10;99.90
12408;DHT22;6268;48.188;17.134;2022-09-28T07:52:30;16.00;99.90
12408;DHT22;6268;48.188;17.134;2022-09-28T07:55:01;16.10;99.90
12408;DHT22;6268;48.188;17.134;2022-09-28T07:57:33;16.00;99.90
12408;DHT22;6268;48.188;17.134;2022-09-28T08:00:03;15.80;99.90
12408;DHT22;6268;48.188;17.134;2022-09-28T08:02:36;15.40;99.90
12408;DHT22;6268;48.188;17.134;2022-09-28T08:05:06;15.30;99.90
12408;DHT22;6268;48.188;17.134;2022-09-28T08:07:36;15.20;99.90
12408;DHT22;6268;48.188;17.134;2022-09-28T08:10:05;15.00;99.90
12408;DHT22;6268;48.188;17.134;2022-09-28T08:12:35;14.50;99.90
12408;DHT22;6268;48.188;17.134;2022-09-28T08:15:07;14.30;99.90
12408;DHT22;6268;48.188;17.134;2022-09-28T08:17:39;13.70;99.90
12408;DHT22;6268;48.188;17.134;2022-09-28T08:20:13;13.40;99.90
12408;DHT22;6268;48.188;17.134;2022-09-28T08:23:02;13.70;99.90
12408;DHT22;6268;48.188;17.134;2022-09-28T08:25:31;14.00;99.90
12408;DHT22;6268;48.188;17.134;2022-09-28T08:28:00;14.10;99.90
12408;DHT22;6268;48.188;17.134;2022-09-28T08:30:29;14.30;99.90
12408;DHT22;6268;48.188;17.134;2022-09-28T08:33:00;14.30;99.90
12408;DHT22;6268;48.188;17.134;2022-09-28T08:35:28;14.20;99.90
12408;DHT22;6268;48.188;17.134;2022-09-28T08:37:57;13.90;99.90
12408;DHT22;6268;48.188;17.134;2022-09-28T08:40:36;13.90;99.90
12408;DHT22;6268;48.188;17.134;2022-09-28T08:43:27;13.80;99.90
12408;DHT22;6268;48.188;17.134;2022-09-28T08:46:09;13.70;99.90
12408;DHT22;6268;48.188;17.134;2022-09-28T08:48:49;13.90;99.90
12408;DHT22;6268;48.188;17.134;2022-09-28T08:51:44;13.90;99.90
12408;DHT22;6268;48.188;17.134;2022-09-28T08:54:25;13.80;99.90
12408;DHT22;6268;48.188;17.134;2022-09-28T08:57:01;14.30;99.90
12408;DHT22;6268;48.188;17.134;2022-09-28T08:59:42;14.50;99.90
12408;DHT22;6268;48.188;17.134;2022-09-28T09:02:19;14.70;99.90
12408;DHT22;6268;48.188;17.134;2022-09-28T09:04:52;15.40;99.90
12408;DHT22;6268;48.188;17.134;2022-09-28T09:07:50;16.10;99.90
12408;DHT22;6268;48.188;17.134;2022-09-28T09:10:48;16.10;99.90
12408;DHT22;6268;48.188;17.134;2022-09-28T09:13:44;16.20;99.90
12408;DHT22;6268;48.188;17.134;2022-09-28T09:16:33;15.90;99.90
12408;DHT22;6268;48.188;17.134;2022-09-28T09:19:15;15.90;99.90
12408;DHT22;6268;48.188;17.134;2022-09-28T09:21:57;16.90;99.90
12408;DHT22;6268;48.188;17.134;2022-09-28T09:24:33;18.10;99.90
12408;DHT22;6268;48.188;17.134;2022-09-28T09:27:17;18.70;99.90
12408;DHT22;6268;48.188;17.134;2022-09-28T09:30:03;19.00;99.90
12408;DHT22;6268;48.188;17.134;2022-09-28T09:32:45;18.50;99.90
12408;DHT22;6268;48.188;17.134;2022-09-28T09:35:54;19.30;99.90
12408;DHT22;6268;48.188;17.134;2022-09-28T09:38:48;19.10;99.90
12408;DHT22;6268;48.188;17.134;2022-09-28T09:41:36;19.80;99.90
12408;DHT22;6268;48.188;17.134;2022-09-28T09:44:31;20.10;99.90
12408;DHT22;6268;48.188;17.134;2022-09-28T09:47:19;19.90;99.90
12408;DHT22;6268;48.188;17.134;2022-09-28T09:49:55;20.00;99.90
12408;DHT22;6268;48.188;17.134;2022-09-28T09:52:44;20.20;99.90
12408;DHT22;6268;48.188;17.134;2022-09-28T09:55:23;20.30;99.90
12408;DHT22;6268;48.188;17.134;2022-09-28T09:58:01;20.40;98.90
12408;DHT22;6268;48.188;17.134;2022-09-28T10:00:33;20.10;99.80
12408;DHT22;6268;48.188;17.134;2022-09-28T10:03:02;20.30;98.90
12408;DHT22;6268;48.188;17.134;2022-09-28T10:05:31;19.80;99.80
12408;DHT22;6268;48.188;17.134;2022-09-28T10:08:09;19.60;99.90
12408;DHT22;6268;48.188;17.134;2022-09-28T10:10:48;19.60;99.90
12408;DHT22;6268;48.188;17.134;2022-09-28T10:13:18;19.20;99.90
12408;DHT22;6268;48.188;17.134;2022-09-28T10:15:47;19.10;99.90
12408;DHT22;6268;48.188;17.134;2022-09-28T10:18:18;18.90;99.90
12408;DHT22;6268;48.188;17.134;2022-09-28T10:20:48;18.80;99.90
12408;DHT22;6268;48.188;17.134;2022-09-28T10:23:19;19.10;99.90
12408;DHT22;6268;48.188;17.134;2022-09-28T10:26:06;19.10;99.90
12408;DHT22;6268;48.188;17.134;2022-09-28T10:28:44;18.90;99.90
12408;DHT22;6268;48.188;17.134;2022-09-28T10:31:36;18.20;99.90
12408;DHT22;6268;48.188;17.134;2022-09-28T10:34:10;18.40;99.90
12408;DHT22;6268;48.188;17.134;2022-09-28T10:36:50;18.60;99.90
12408;DHT22;6268;48.188;17.134;2022-09-28T10:39:26;18.80;99.90
12408;DHT22;6268;48.188;17.134;2022-09-28T10:42:01;18.80;99.90
12408;DHT22;6268;48.188;17.134;2022-09-28T10:44:34;18.90;99.90
12408;DHT22;6268;48.188;17.134;2022-09-28T10:47:18;19.00;99.90
12408;DHT22;6268;48.188;17.134;2022-09-28T10:49:50;19.00;99.90
12408;DHT22;6268;48.188;17.134;2022-09-28T10:52:35;18.80;99.90
12408;DHT22;6268;48.188;17.134;2022-09-28T10:55:27;18.70;99.90
12408;DHT22;6268;48.188;17.134;2022-09-28T10:58:09;18.30;99.90
12408;DHT22;6268;48.188;17.134;2022-09-28T11:00:52;18.10;99.90
12408;DHT22;6268;48.188;17.134;2022-09-28T11:03:29;18.20;99.90
12408;DHT22;6268;48.188;17.134;2022-09-28T11:06:00;18.00;99.90
12408;DHT22;6268;48.188;17.134;2022-09-28T11:08:35;17.70;99.90
12408;DHT22;6268;48.188;17.134;2022-09-28T11:11:10;17.60;99.90
12408;DHT22;6268;48.188;17.134;2022-09-28T11:13:44;17.60;99.90
12408;DHT22;6268;48.188;17.134;2022-09-28T11:16:23;17.50;99.90
12408;DHT22;6268;48.188;17.134;2022-09-28T11:18:55;17.30;99.90
12408;DHT22;6268;48.188;17.134;2022-09-28T11:21:26;17.30;99.90
12408;DHT22;6268;48.188;17.134;2022-09-28T11:24:00;17.20;99.90
12408;DHT22;6268;48.188;17.134;2022-09-28T11:26:38;17.20;99.90
12408;DHT22;6268;48.188;17.134;2022-09-28T11:29:24;17.20;99.90
12408;DHT22;6268;48.188;17.134;2022-09-28T11:32:05;17.10;99.90
12408;DHT22;6268;48.188;17.134;2022-09-28T11:34:43;17.20;99.90
12408;DHT22;6268;48.188;17.134;2022-09-28T11:37:36;17.30;99.90
12408;DHT22;6268;48.188;17.134;2022-09-28T11:40:26;17.50;99.90
12408;DHT22;6268;48.188;17.134;2022-09-28T11:43:09;17.50;99.90
12408;DHT22;6268;48.188;17.134;2022-09-28T11:45:53;17.60;99.90
12408;DHT22;6268;48.188;17.134;2022-09-28T11:48:31;17.70;99.90
12408;DHT22;6268;48.188;17.134;2022-09-28T11:51:14;17.60;99.90
12408;DHT22;6268;48.188;17.134;2022-09-28T11:53:49;17.50;99.90
12408;DHT22;6268;48.188;17.134;2022-09-28T11:56:31;17.50;99.90
12408;DHT22;6268;48.188;17.134;2022-09-28T11:59:07;17.50;99.90
12408;DHT22;6268;48.188;17.134;2022-09-28T12:01:44;17.50;99.90
12408;DHT22;6268;48.188;17.134;2022-09-28T12:04:22;17.60;99.90
12408;DHT22;6268;48.188;17.134;2022-09-28T12:06:57;17.80;99.90
12408;DHT22;6268;48.188;17.134;2022-09-28T12:09:37;17.70;99.90
12408;DHT22;6268;48.188;17.134;2022-09-28T12:12:18;17.60;99.90
12408;DHT22;6268;48.188;17.134;2022-09-28T12:14:53;17.70;99.90
12408;DHT22;6268;48.188;17.134;2022-09-28T12:17:29;17.70;99.90
12408;DHT22;6268;48.188;17.134;2022-09-28T12:20:09;17.80;99.90
12408;DHT22;6268;48.188;17.134;2022-09-28T12:22:47;17.80;99.90
12408;DHT22;6268;48.188;17.134;2022-09-28T12:25:23;17.70;99.90
12408;DHT22;6268;48.188;17.134;2022-09-28T12:27:57;17.70;99.90
12408;DHT22;6268;48.188;17.134;2022-09-28T12:30:33;17.60;99.90
12408;DHT22;6268;48.188;17.134;2022-09-28T12:33:10;17.70;99.90
12408;DHT22;6268;48.188;17.134;2022-09-28T12:35:55;17.70;99.90
12408;DHT22;6268;48.188;17.134;2022-09-28T12:38:41;17.90;99.90
12408;DHT22;6268;48.188;17.134;2022-09-28T12:41:57;18.00;99.90
12408;DHT22;6268;48.188;17.134;2022-09-28T12:44:44;18.20;99.90
12408;DHT22;6268;48.188;17.134;2022-09-28T12:47:37;18.20;99.90
12408;DHT22;6268;48.188;17.134;2022-09-28T12:50:27;18.20;99.90
12408;DHT22;6268;48.188;17.134;2022-09-28T12:53:22;17.80;99.90
12408;DHT22;6268;48.188;17.134;2022-09-28T12:56:22;17.70;99.90
12408;DHT22;6268;48.188;17.134;2022-09-28T12:59:04;17.70;99.90
12408;DHT22;6268;48.188;17.134;2022-09-28T13:02:11;17.70;99.90
12408;DHT22;6268;48.188;17.134;2022-09-28T13:05:17;17.70;99.90
12408;DHT22;6268;48.188;17.134;2022-09-28T13:08:09;17.50;99.90
12408;DHT22;6268;48.188;17.134;2022-09-28T13:10:50;17.40;99.90
12408;DHT22;6268;48.188;17.134;2022-09-28T13:13:39;17.40;99.90
12408;DHT22;6268;48.188;17.134;2022-09-28T13:16:20;17.50;99.90
12408;DHT22;6268;48.188;17.134;2022-09-28T13:19:05;17.50;99.90
12408;DHT22;6268;48.188;17.134;2022-09-28T13:21:50;17.50;99.90
12408;DHT22;6268;48.188;17.134;2022-09-28T13:24:28;17.40;99.90
12408;DHT22;6268;48.188;17.134;2022-09-28T13:27:04;17.50;99.90
12408;DHT22;6268;48.188;17.134;2022-09-28T13:29:38;17.50;99.90
12408;DHT22;6268;48.188;17.134;2022-09-28T13:32:09;17.60;99.90
12408;DHT22;6268;48.188;17.134;2022-09-28T13:34:38;17.60;99.90
12408;DHT22;6268;48.188;17.134;2022-09-28T13:37:18;17.60;99.90
12408;DHT22;6268;48.188;17.134;2022-09-28T13:39:51;17.60;99.90
12408;DHT22;6268;48.188;17.134;2022-09-28T13:42:33;17.60;99.90
12408;DHT22;6268;48.188;17.134;2022-09-28T13:45:33;17.60;99.90
12408;DHT22;6268;48.188;17.134;2022-09-28T13:48:21;17.60;99.90
12408;DHT22;6268;48.188;17.134;2022-09-28T13:51:13;17.50;99.90
12408;DHT22;6268;48.188;17.134;2022-09-28T13:54:13;17.50;99.90
12408;DHT22;6268;48.188;17.134;2022-09-28T13:56:54;17.60;99.90
12408;DHT22;6268;48.188;17.134;2022-09-28T13:59:30;17.50;99.90
12408;DHT22;6268;48.188;17.134;2022-09-28T14:02:08;17.50;99.90
12408;DHT22;6268;48.188;17.134;2022-09-28T14:04:54;17.50;99.90
12408;DHT22;6268;48.188;17.134;2022-09-28T14:07:26;17.60;99.90
12408;DHT22;6268;48.188;17.134;2022-09-28T14:10:48;17.60;99.90
12408;DHT22;6268;48.188;17.134;2022-09-28T14:16:28;17.70;99.90
12408;DHT22;6268;48.188;17.134;2022-09-28T14:19:04;17.70;99.90
12408;DHT22;6268;48.188;17.134;2022-09-28T14:28:01;17.60;99.90
12408;DHT22;6268;48.188;17.134;2022-09-28T14:30:47;17.60;99.90
12408;DHT22;6268;48.188;17.134;2022-09-28T14:33:24;17.60;99.90
12408;DHT22;6268;48.188;17.134;2022-09-28T14:35:56;17.60;99.90
12408;DHT22;6268;48.188;17.134;2022-09-28T14:38:30;17.60;99.90
12408;DHT22;6268;48.188;17.134;2022-09-28T14:41:27;17.60;99.90
12408;DHT22;6268;48.188;17.134;2022-09-28T14:44:06;17.70;99.90
12408;DHT22;6268;48.188;17.134;2022-09-28T14:46:38;17.60;99.90
12408;DHT22;6268;48.188;17.134;2022-09-28T14:49:45;17.60;99.90
12408;DHT22;6268;48.188;17.134;2022-09-28T14:52:36;17.50;99.90
12408;DHT22;6268;48.188;17.134;2022-09-28T14:55:12;17.50;99.90
12408;DHT22;6268;48.188;17.134;2022-09-28T14:57:43;17.50;99.90
12408;DHT22;6268;48.188;17.134;2022-09-28T15:00:22;17.50;99.90
12408;DHT22;6268;48.188;17.134;2022-09-28T15:02:58;17.50;99.90
12408;DHT22;6268;48.188;17.134;2022-09-28T15:05:33;17.50;99.90
12408;DHT22;6268;48.188;17.134;2022-09-28T15:08:05;17.40;99.90
12408;DHT22;6268;48.188;17.134;2022-09-28T15:10:36;17.40;99.90
12408;DHT22;6268;48.188;17.134;2022-09-28T15:13:17;17.40;99.90
12408;DHT22;6268;48.188;17.134;2022-09-28T15:15:51;17.50;99.90
12408;DHT22;6268;48.188;17.134;2022-09-28T15:18:56;17.40;99.90
12408;DHT22;6268;48.188;17.134;2022-09-28T15:21:35;17.40;99.90
12408;DHT22;6268;48.188;17.134;2022-09-28T15:24:29;17.40;99.90
12408;DHT22;6268;48.188;17.134;2022-09-28T15:26:59;17.30;99.90
12408;DHT22;6268;48.188;17.134;2022-09-28T15:29:29;17.30;99.90
12408;DHT22;6268;48.188;17.134;2022-09-28T15:32:01;17.30;99.90
12408;DHT22;6268;48.188;17.134;2022-09-28T15:34:31;17.30;99.90
12408;DHT22;6268;48.188;17.134;2022-09-28T15:37:20;17.30;99.90
12408;DHT22;6268;48.188;17.134;2022-09-28T15:39:52;17.20;99.90
12408;DHT22;6268;48.188;17.134;2022-09-28T15:42:22;17.30;99.90
12408;DHT22;6268;48.188;17.134;2022-09-28T15:45:03;17.30;99.90
12408;DHT22;6268;48.188;17.134;2022-09-28T15:48:05;17.20;99.90
12408;DHT22;6268;48.188;17.134;2022-09-28T15:50:59;17.20;99.90
12408;DHT22;6268;48.188;17.134;2022-09-28T15:53:41;17.20;99.90
12408;DHT22;6268;48.188;17.134;2022-09-28T15:56:14;17.20;99.90
12408;DHT22;6268;48.188;17.134;2022-09-28T15:58:43;17.20;99.90
12408;DHT22;6268;48.188;17.134;2022-09-28T16:01:36;17.20;99.90
12408;DHT22;6268;48.188;17.134;2022-09-28T16:04:36;17.20;99.90
12408;DHT22;6268;48.188;17.134;2022-09-28T16:07:24;17.20;99.90
12408;DHT22;6268;48.188;17.134;2022-09-28T16:13:14;17.20;99.90
12408;DHT22;6268;48.188;17.134;2022-09-28T16:15:52;17.20;99.90
12408;DHT22;6268;48.188;17.134;2022-09-28T16:18:24;17.20;99.90
12408;DHT22;6268;48.188;17.134;2022-09-28T16:20:58;17.20;99.90
12408;DHT22;6268;48.188;17.134;2022-09-28T16:23:51;17.20;99.90
12408;DHT22;6268;48.188;17.134;2022-09-28T16:26:31;17.20;99.90
12408;DHT22;6268;48.188;17.134;2022-09-28T16:29:12;17.20;99.90
12408;DHT22;6268;48.188;17.134;2022-09-28T16:31:52;17.20;99.90
12408;DHT22;6268;48.188;17.134;2022-09-28T16:34:24;17.20;99.90
12408;DHT22;6268;48.188;17.134;2022-09-28T16:36:55;17.20;99.90
12408;DHT22;6268;48.188;17.134;2022-09-28T16:39:24;17.20;99.90
12408;DHT22;6268;48.188;17.134;2022-09-28T16:41:55;17.10;99.90
12408;DHT22;6268;48.188;17.134;2022-09-28T16:44:28;17.10;99.90